Time,TemperatureF,DewpointF,PressureIn,WindDirection,WindDirectionDegrees,WindSpeedMPH,WindSpeedGustMPH,Humidity,HourlyPrecipIn,Conditions,Clouds,dailyrainin,SoftwareType,DateUTC
2013-02-12 00:01:00,51.0,49.0,30.12,North,10,5.0,7.0,94,0.00,,,0.28,,2013-02-12 06:01:00,
2013-02-12 00:12:00,51.0,49.0,30.12,NNE,24,2.0,6.0,94,0.00,,,0.28,,2013-02-12 06:12:00,
2013-02-12 00:21:00,51.0,49.0,30.12,NNE,24,2.0,6.0,94,0.00,,,0.28,,2013-02-12 06:21:00,
2013-02-12 00:32:00,51.0,49.0,30.10,NNE,30,4.0,7.0,94,0.00,,,0.28,,2013-02-12 06:32:00,
2013-02-12 00:42:00,50.0,48.0,30.11,North,360,4.0,7.0,94,0.00,,,0.28,,2013-02-12 06:42:00,
2013-02-12 00:51:00,50.0,48.0,30.11,North,360,4.0,7.0,94,0.00,,,0.28,,2013-02-12 06:51:00,
2013-02-12 01:01:00,50.0,48.0,30.10,NE,45,4.0,7.0,94,0.00,,,0.28,,2013-02-12 07:01:00,
2013-02-12 01:11:00,50.0,48.0,30.10,NE,45,4.0,7.0,94,0.00,,,0.28,,2013-02-12 07:11:00,
2013-02-12 01:21:00,50.0,48.0,30.10,NE,41,4.0,6.0,94,0.00,,,0.28,,2013-02-12 07:21:00,
2013-02-12 01:31:00,50.0,48.0,30.10,NE,41,4.0,6.0,94,0.00,,,0.28,,2013-02-12 07:31:00,
2013-02-12 01:42:00,50.0,48.0,30.10,NE,41,4.0,6.0,94,0.00,,,0.28,,2013-02-12 07:42:00,
2013-02-12 01:51:00,50.0,48.0,30.09,ENE,74,4.0,8.0,94,0.00,,,0.28,,2013-02-12 07:51:00,
2013-02-12 02:01:00,50.0,49.0,30.09,NE,48,6.0,7.0,95,0.00,,,0.28,,2013-02-12 08:01:00,
2013-02-12 02:11:00,50.0,49.0,30.09,NE,48,6.0,7.0,95,0.00,,,0.28,,2013-02-12 08:11:00,
2013-02-12 02:21:00,50.0,49.0,30.09,ENE,67,5.0,9.0,95,0.00,,,0.28,,2013-02-12 08:21:00,
2013-02-12 02:32:00,50.0,49.0,30.09,NE,38,4.0,7.0,95,0.00,,,0.28,,2013-02-12 08:32:00,
2013-02-12 02:41:00,50.0,49.0,30.09,NE,38,4.0,7.0,95,0.00,,,0.28,,2013-02-12 08:41:00,
2013-02-12 02:52:00,50.0,49.0,30.07,ENE,66,6.0,8.0,95,0.00,,,0.28,,2013-02-12 08:52:00,
2013-02-12 03:01:00,49.0,48.0,30.04,East,82,7.0,11.0,95,0.00,,,0.28,,2013-02-12 09:01:00,
2013-02-12 03:11:00,49.0,48.0,30.04,East,82,7.0,11.0,95,0.00,,,0.28,,2013-02-12 09:11:00,
2013-02-12 03:21:00,49.0,48.0,30.04,ENE,74,6.0,11.0,95,0.00,,,0.28,,2013-02-12 09:21:00,
2013-02-12 03:32:00,49.0,48.0,30.02,ESE,107,8.0,11.0,96,0.00,,,0.28,,2013-02-12 09:32:00,
2013-02-12 03:42:00,49.0,48.0,30.02,ESE,107,8.0,11.0,96,0.00,,,0.28,,2013-02-12 09:42:00,
2013-02-12 03:51:00,49.0,48.0,30.02,ENE,78,5.0,10.0,95,0.00,,,0.28,,2013-02-12 09:51:00,
2013-02-12 04:01:00,49.0,48.0,30.01,NE,49,9.0,13.0,95,0.00,,,0.28,,2013-02-12 10:01:00,
2013-02-12 04:11:00,49.0,48.0,30.01,ENE,65,8.0,12.0,95,0.00,,,0.28,,2013-02-12 10:11:00,
2013-02-12 04:21:00,49.0,48.0,30.01,ENE,65,8.0,12.0,95,0.00,,,0.28,,2013-02-12 10:21:00,
2013-02-12 04:32:00,49.0,48.0,29.99,ENE,74,9.0,13.0,95,0.00,,,0.28,,2013-02-12 10:32:00,
2013-02-12 04:43:00,49.0,48.0,29.99,ENE,74,9.0,13.0,95,0.00,,,0.28,,2013-02-12 10:43:00,
2013-02-12 04:51:00,49.0,48.0,30.01,East,86,5.0,10.0,95,0.00,,,0.27,,2013-02-12 10:51:00,
2013-02-12 05:01:00,49.0,47.0,29.98,ENE,69,8.0,12.0,94,0.00,,,0.27,,2013-02-12 11:01:00,
2013-02-12 05:11:00,49.0,47.0,29.98,ENE,69,8.0,12.0,94,0.00,,,0.27,,2013-02-12 11:11:00,
2013-02-12 05:21:00,49.0,47.0,29.97,ENE,74,7.0,11.0,94,0.00,,,0.27,,2013-02-12 11:21:00,
2013-02-12 05:32:00,49.0,47.0,30.00,ENE,57,4.0,7.0,94,0.00,,,0.27,,2013-02-12 11:32:00,
2013-02-12 05:41:00,49.0,47.0,30.00,ENE,57,4.0,7.0,94,0.00,,,0.27,,2013-02-12 11:41:00,
2013-02-12 05:52:00,49.0,47.0,30.00,NE,51,6.0,7.0,94,0.00,,,0.27,,2013-02-12 11:52:00,
2013-02-12 06:01:00,49.0,48.0,30.00,NNE,24,8.0,12.0,95,0.00,,,0.27,,2013-02-12 12:01:00,
2013-02-12 06:11:00,49.0,48.0,30.00,NNE,24,8.0,12.0,95,0.00,,,0.27,,2013-02-12 12:11:00,
2013-02-12 06:21:00,49.0,48.0,29.96,NE,48,8.0,11.0,95,0.00,,,0.27,,2013-02-12 12:21:00,
2013-02-12 06:32:00,49.0,48.0,29.96,NE,37,9.0,12.0,95,0.00,,,0.27,,2013-02-12 12:32:00,
2013-02-12 06:42:00,49.0,48.0,29.96,NE,37,9.0,12.0,95,0.00,,,0.27,,2013-02-12 12:42:00,
2013-02-12 06:52:00,49.0,48.0,29.95,East,79,8.0,12.0,95,0.00,,,0.25,,2013-02-12 12:52:00,
2013-02-12 07:01:00,49.0,48.0,29.96,NE,43,8.0,13.0,95,0.00,,,0.25,,2013-02-12 13:01:00,
2013-02-12 07:11:00,49.0,47.0,29.97,NE,39,10.0,12.0,94,0.00,,,0.25,,2013-02-12 13:11:00,
2013-02-12 07:22:00,49.0,47.0,29.97,NE,39,10.0,12.0,94,0.00,,,0.25,,2013-02-12 13:22:00,
2013-02-12 07:32:00,49.0,47.0,29.96,NE,47,7.0,12.0,94,0.01,,,0.26,,2013-02-12 13:32:00,
2013-02-12 07:42:00,49.0,47.0,29.96,NE,47,7.0,12.0,94,0.01,,,0.26,,2013-02-12 13:42:00,
2013-02-12 07:51:00,49.0,47.0,29.98,NE,46,7.0,13.0,94,0.03,,,0.22,,2013-02-12 13:51:00,
2013-02-12 08:01:00,49.0,47.0,29.95,ENE,74,10.0,13.0,94,0.05,,,0.24,,2013-02-12 14:01:00,
2013-02-12 08:12:00,49.0,47.0,29.95,ENE,74,10.0,13.0,94,0.05,,,0.24,,2013-02-12 14:12:00,
2013-02-12 08:21:00,49.0,47.0,29.95,East,90,9.0,15.0,93,0.06,,,0.25,,2013-02-12 14:21:00,
2013-02-12 08:32:00,49.0,47.0,29.98,East,101,7.0,10.0,93,0.06,,,0.26,,2013-02-12 14:32:00,
2013-02-12 08:42:00,49.0,47.0,29.98,East,101,7.0,10.0,93,0.06,,,0.26,,2013-02-12 14:42:00,
2013-02-12 08:52:00,49.0,47.0,29.97,ENE,67,10.0,13.0,92,0.05,,,0.22,,2013-02-12 14:52:00,
2013-02-12 09:02:00,49.0,47.0,29.94,ENE,77,11.0,21.0,92,0.03,,,0.22,,2013-02-12 15:02:00,
2013-02-12 09:11:00,49.0,47.0,29.93,ENE,74,12.0,17.0,92,0.03,,,0.23,,2013-02-12 15:11:00,
2013-02-12 09:21:00,49.0,47.0,29.93,ENE,74,12.0,17.0,92,0.03,,,0.23,,2013-02-12 15:21:00,
2013-02-12 09:32:00,49.0,46.0,29.91,East,84,15.0,19.0,90,0.02,,,0.23,,2013-02-12 15:32:00,
2013-02-12 09:42:00,49.0,46.0,29.91,East,84,15.0,19.0,90,0.02,,,0.23,,2013-02-12 15:42:00,
2013-02-12 09:52:00,49.0,46.0,29.90,East,96,12.0,19.0,90,0.01,,,0.19,,2013-02-12 15:52:00,
2013-02-12 10:01:00,49.0,46.0,29.96,NE,55,6.0,18.0,89,0.01,,,0.19,,2013-02-12 16:01:00,
2013-02-12 10:11:00,49.0,46.0,29.96,NE,55,6.0,18.0,89,0.01,,,0.19,,2013-02-12 16:11:00,
2013-02-12 10:22:00,49.0,46.0,29.91,East,89,11.0,19.0,88,0.00,,,0.19,,2013-02-12 16:22:00,
2013-02-12 10:32:00,49.0,46.0,29.91,ENE,59,11.0,23.0,89,0.00,,,0.19,,2013-02-12 16:32:00,
2013-02-12 10:41:00,49.0,46.0,29.91,ENE,59,11.0,23.0,89,0.00,,,0.19,,2013-02-12 16:41:00,
2013-02-12 10:51:00,49.0,46.0,29.96,NE,44,12.0,15.0,89,0.00,,,0.15,,2013-02-12 16:51:00,
2013-02-12 11:01:00,49.0,46.0,29.97,ENE,69,9.0,11.0,90,0.01,,,0.16,,2013-02-12 17:01:00,
2013-02-12 11:12:00,49.0,46.0,29.97,ENE,69,9.0,11.0,90,0.01,,,0.16,,2013-02-12 17:12:00,
2013-02-12 11:21:00,48.0,45.0,29.94,NE,34,8.0,17.0,91,0.03,,,0.18,,2013-02-12 17:21:00,
2013-02-12 11:32:00,47.0,45.0,29.91,NE,53,13.0,15.0,93,0.09,,,0.24,,2013-02-12 17:32:00,
2013-02-12 11:42:00,47.0,45.0,29.91,NE,53,13.0,15.0,93,0.09,,,0.24,,2013-02-12 17:42:00,
2013-02-12 11:52:00,47.0,45.0,29.89,ENE,59,13.0,20.0,94,0.15,,,0.25,,2013-02-12 17:52:00,
2013-02-12 12:01:00,47.0,45.0,29.88,NE,54,11.0,19.0,94,0.18,,,0.28,,2013-02-12 18:01:00,
2013-02-12 12:11:00,47.0,45.0,29.88,NE,54,11.0,19.0,94,0.18,,,0.28,,2013-02-12 18:11:00,
2013-02-12 12:23:00,47.0,45.0,29.88,NE,48,11.0,19.0,94,0.18,,,0.31,,2013-02-12 18:23:00,
2013-02-12 12:32:00,47.0,46.0,29.87,NE,45,11.0,13.0,95,0.17,,,0.37,,2013-02-12 18:32:00,
2013-02-12 12:41:00,47.0,46.0,29.87,NE,45,11.0,13.0,95,0.17,,,0.37,,2013-02-12 18:41:00,
2013-02-12 12:51:00,47.0,46.0,29.87,ENE,67,12.0,15.0,95,0.20,,,0.44,,2013-02-12 18:51:00,
2013-02-12 13:02:00,46.0,45.0,29.86,NE,52,11.0,14.0,95,0.23,,,0.51,,2013-02-12 19:02:00,
2013-02-12 13:11:00,46.0,45.0,29.86,NE,52,11.0,14.0,95,0.23,,,0.51,,2013-02-12 19:11:00,
2013-02-12 13:21:00,46.0,45.0,29.86,NE,50,9.0,13.0,95,0.22,,,0.52,,2013-02-12 19:21:00,
2013-02-12 13:31:00,46.0,45.0,29.84,NE,42,9.0,14.0,96,0.20,,,0.56,,2013-02-12 19:31:00,
2013-02-12 13:41:00,46.0,45.0,29.84,NE,42,9.0,14.0,96,0.20,,,0.56,,2013-02-12 19:41:00,
2013-02-12 13:51:00,46.0,45.0,29.86,North,10,12.0,15.0,96,0.16,,,0.60,,2013-02-12 19:51:00,
2013-02-12 14:01:00,46.0,45.0,29.82,ENE,69,12.0,17.0,95,0.14,,,0.65,,2013-02-12 20:01:00,
2013-02-12 14:11:00,46.0,45.0,29.82,ENE,69,12.0,17.0,95,0.14,,,0.65,,2013-02-12 20:11:00,
2013-02-12 14:21:00,46.0,45.0,29.80,ENE,72,14.0,21.0,95,0.14,,,0.66,,2013-02-12 20:21:00,
2013-02-12 14:31:00,46.0,45.0,29.82,NE,38,10.0,17.0,95,0.11,,,0.67,,2013-02-12 20:31:00,
2013-02-12 14:41:00,46.0,45.0,29.82,NE,38,10.0,17.0,95,0.11,,,0.67,,2013-02-12 20:41:00,
2013-02-12 14:52:00,46.0,45.0,29.80,NE,53,10.0,15.0,95,0.07,,,0.68,,2013-02-12 20:52:00,
2013-02-12 15:01:00,46.0,45.0,29.82,NE,40,12.0,18.0,95,0.03,,,0.68,,2013-02-12 21:01:00,
2013-02-12 15:11:00,46.0,45.0,29.82,NE,40,12.0,18.0,95,0.03,,,0.68,,2013-02-12 21:11:00,
2013-02-12 15:21:00,46.0,45.0,29.80,ENE,69,7.0,16.0,95,0.10,,,0.76,,2013-02-12 21:21:00,
2013-02-12 15:31:00,46.0,45.0,29.83,North,355,10.0,14.0,95,0.18,,,0.85,,2013-02-12 21:31:00,
2013-02-12 15:42:00,46.0,45.0,29.83,North,355,10.0,14.0,95,0.18,,,0.85,,2013-02-12 21:42:00,
2013-02-12 15:51:00,46.0,45.0,29.83,North,355,10.0,14.0,95,0.18,,,0.85,,2013-02-12 21:51:00,
2013-02-12 16:01:00,45.0,44.0,29.80,NNE,16,12.0,15.0,96,0.34,,,1.03,,2013-02-12 22:01:00,
2013-02-12 16:12:00,45.0,44.0,29.80,NNE,16,12.0,15.0,96,0.34,,,1.03,,2013-02-12 22:12:00,
2013-02-12 16:21:00,45.0,44.0,29.80,NNE,29,13.0,16.0,96,0.28,,,1.04,,2013-02-12 22:21:00,
2013-02-12 16:32:00,45.0,44.0,29.79,NE,42,11.0,18.0,96,0.18,,,1.04,,2013-02-12 22:32:00,
2013-02-12 16:42:00,45.0,44.0,29.79,NE,42,11.0,18.0,96,0.18,,,1.04,,2013-02-12 22:42:00,
2013-02-12 16:51:00,45.0,44.0,29.79,NE,43,12.0,15.0,96,0.04,,,1.04,,2013-02-12 22:51:00,
2013-02-12 17:01:00,46.0,45.0,29.79,NE,46,11.0,15.0,95,0.01,,,1.04,,2013-02-12 23:01:00,
2013-02-12 17:11:00,46.0,45.0,29.79,NE,55,9.0,14.0,95,0.00,,,1.04,,2013-02-12 23:11:00,
2013-02-12 17:21:00,46.0,45.0,29.79,NE,55,9.0,14.0,95,0.00,,,1.04,,2013-02-12 23:21:00,
2013-02-12 17:32:00,46.0,45.0,29.79,NE,55,9.0,14.0,95,0.00,,,1.04,,2013-02-12 23:32:00,
2013-02-12 17:42:00,46.0,45.0,29.79,NE,55,9.0,14.0,95,0.00,,,1.04,,2013-02-12 23:42:00,
2013-02-12 17:52:00,46.0,45.0,29.79,NE,39,7.0,11.0,95,0.00,,,1.04,,2013-02-12 23:52:00,
2013-02-12 18:02:00,46.0,45.0,29.79,NNE,28,7.0,11.0,95,0.00,,,1.04,,2013-02-13 00:02:00,
2013-02-12 18:11:00,46.0,45.0,29.79,NNE,28,7.0,11.0,95,0.00,,,1.04,,2013-02-13 00:11:00,
2013-02-12 18:21:00,46.0,45.0,29.78,ENE,65,8.0,12.0,95,0.00,,,1.04,,2013-02-13 00:21:00,
2013-02-12 18:32:00,46.0,44.0,29.78,ENE,71,8.0,11.0,94,0.00,,,1.04,,2013-02-13 00:32:00,
2013-02-12 18:42:00,46.0,44.0,29.78,ENE,71,8.0,11.0,94,0.00,,,1.04,,2013-02-13 00:42:00,
2013-02-12 18:52:00,46.0,44.0,29.78,NE,53,8.0,11.0,94,0.00,,,1.04,,2013-02-13 00:52:00,
2013-02-12 19:01:00,46.0,45.0,29.79,NNE,30,6.0,9.0,95,0.00,,,1.04,,2013-02-13 01:01:00,
2013-02-12 19:11:00,46.0,45.0,29.79,NNE,30,6.0,9.0,95,0.00,,,1.04,,2013-02-13 01:11:00,
2013-02-12 19:21:00,46.0,45.0,29.79,NE,46,6.0,8.0,95,0.00,,,1.04,,2013-02-13 01:21:00,
2013-02-12 19:31:00,46.0,44.0,29.79,ENE,57,5.0,7.0,94,0.00,,,1.04,,2013-02-13 01:31:00,
2013-02-12 19:42:00,46.0,44.0,29.79,ENE,57,5.0,7.0,94,0.00,,,1.04,,2013-02-13 01:42:00,
2013-02-12 19:51:00,46.0,44.0,29.80,North,11,4.0,6.0,94,0.00,,,1.04,,2013-02-13 01:51:00,
2013-02-12 20:01:00,46.0,45.0,29.80,North,360,3.0,6.0,95,0.00,,,1.04,,2013-02-13 02:01:00,
2013-02-12 20:11:00,46.0,45.0,29.80,North,360,3.0,6.0,95,0.00,,,1.04,,2013-02-13 02:11:00,
2013-02-12 20:21:00,46.0,45.0,29.81,North,360,2.0,4.0,95,0.00,,,1.04,,2013-02-13 02:21:00,
2013-02-12 20:31:00,46.0,44.0,29.82,NW,316,2.0,4.0,94,0.00,,,1.04,,2013-02-13 02:31:00,
2013-02-12 20:41:00,46.0,44.0,29.82,NW,316,2.0,4.0,94,0.00,,,1.04,,2013-02-13 02:41:00,
2013-02-12 20:52:00,46.0,45.0,29.80,North,355,3.0,6.0,95,0.00,,,1.04,,2013-02-13 02:52:00,
2013-02-12 21:01:00,45.0,44.0,29.82,NW,320,3.0,5.0,95,0.00,,,1.04,,2013-02-13 03:01:00,
2013-02-12 21:11:00,45.0,44.0,29.82,NW,309,3.0,5.0,95,0.00,,,1.04,,2013-02-13 03:11:00,
2013-02-12 21:21:00,45.0,44.0,29.82,NW,309,3.0,5.0,95,0.00,,,1.04,,2013-02-13 03:21:00,
2013-02-12 21:32:00,45.0,44.0,29.82,NW,305,4.0,6.0,96,0.00,,,1.04,,2013-02-13 03:32:00,
2013-02-12 21:41:00,45.0,44.0,29.82,NW,305,4.0,6.0,96,0.00,,,1.04,,2013-02-13 03:41:00,
2013-02-12 21:51:00,45.0,44.0,29.83,WNW,294,3.0,5.0,96,0.00,,,1.04,,2013-02-13 03:51:00,
2013-02-12 22:01:00,45.0,44.0,29.83,West,281,3.0,6.0,96,0.00,,,1.04,,2013-02-13 04:01:00,
2013-02-12 22:11:00,45.0,44.0,29.83,West,281,3.0,6.0,96,0.00,,,1.04,,2013-02-13 04:11:00,
2013-02-12 22:21:00,45.0,44.0,29.84,West,281,2.0,6.0,96,0.00,,,1.04,,2013-02-13 04:21:00,
2013-02-12 22:32:00,45.0,44.0,29.86,West,271,5.0,8.0,96,0.00,,,1.04,,2013-02-13 04:32:00,
2013-02-12 22:41:00,45.0,44.0,29.86,West,271,5.0,8.0,96,0.00,,,1.04,,2013-02-13 04:41:00,
2013-02-12 22:51:00,46.0,45.0,29.85,WSW,256,4.0,8.0,96,0.00,,,1.04,,2013-02-13 04:51:00,
2013-02-12 23:01:00,46.0,45.0,29.86,West,261,6.0,9.0,96,0.00,,,1.04,,2013-02-13 05:01:00,
2013-02-12 23:11:00,46.0,45.0,29.85,WSW,246,4.0,7.0,96,0.00,,,1.04,,2013-02-13 05:11:00,
2013-02-12 23:22:00,46.0,45.0,29.85,WSW,246,4.0,7.0,96,0.00,,,1.04,,2013-02-13 05:22:00,
2013-02-12 23:31:00,46.0,45.0,29.86,West,259,5.0,9.0,96,0.00,,,1.04,,2013-02-13 05:31:00,
2013-02-12 23:42:00,46.0,45.0,29.86,West,259,5.0,9.0,96,0.00,,,1.04,,2013-02-13 05:42:00,
2013-02-12 23:52:00,46.0,45.0,29.85,WNW,288,7.0,10.0,96,0.00,,,1.04,,2013-02-13 05:52:00,